Time;durP1;ratioP1;P1;durP2;ratioP2;P2;SDS_P1;SDS_P2;PMS_P1;PMS_P2;Temp;Humidity;BMP_temperature;BMP_pressure;BME280_temperature;BME280_humidity;BME280_pressure;Samples;Min_cycle;Max_cycle;Signal;HPM_P1;HPM_P2
2022/05/23 00:01:07;;;;;;;1.63;0.88;;;;;;;12.88;86.68;100861.81;6197718;28;20502;-71
2022/05/23 00:04:08;;;;;;;1.48;0.90;;;;;;;12.86;88.20;100858.44;6196021;28;20051;-71
2022/05/23 00:07:13;;;;;;;0.93;0.85;;;;;;;12.85;88.50;100854.97;6197544;28;20061;-71
2022/05/23 00:10:18;;;;;;;2.08;1.20;;;;;;;12.80;88.42;100850.88;6197394;28;20457;-71
2022/05/23 00:13:19;;;;;;;0.85;0.82;;;;;;;12.76;89.01;100854.66;6197300;28;20399;-71
2022/05/23 00:16:25;;;;;;;1.52;1.10;;;;;;;12.77;88.38;100857.22;6197390;28;20058;-71
2022/05/23 00:19:27;;;;;;;3.15;0.90;;;;;;;12.77;88.26;100853.72;6197553;28;20053;-71
2022/05/23 00:22:28;;;;;;;1.98;0.70;;;;;;;12.79;88.29;100855.31;6197387;28;20050;-71
2022/05/23 00:25:29;;;;;;;1.00;0.90;;;;;;;12.81;87.95;100848.19;6197423;28;20066;-70
2022/05/23 00:28:31;;;;;;;1.23;0.90;;;;;;;12.80;87.32;100846.44;6197507;28;20054;-71
2022/05/23 00:31:33;;;;;;;0.88;0.85;;;;;;;12.73;86.62;100852.22;6195464;28;20054;-71
2022/05/23 00:37:56;;;;;;;0.95;0.70;;;;;;;12.74;88.67;100841.56;6200051;28;20058;-70
2022/05/23 00:44:19;;;;;;;1.02;0.98;;;;;;;12.81;88.30;100836.75;6200666;28;20054;-71
2022/05/23 00:47:24;;;;;;;1.42;0.80;;;;;;;12.85;87.93;100831.22;6201953;28;20050;-71
2022/05/23 00:50:25;;;;;;;1.52;1.13;;;;;;;12.89;87.10;100824.78;6201649;28;20061;-71
2022/05/23 00:53:30;;;;;;;1.27;1.00;;;;;;;12.89;86.39;100821.31;6201630;28;20043;-71
2022/05/23 00:56:41;;;;;;;0.85;0.85;;;;;;;12.89;87.18;100819.50;6201495;28;20062;-71
2022/05/23 00:59:43;;;;;;;2.15;1.10;;;;;;;12.89;86.96;100814.25;6201622;28;20046;-70
2022/05/23 01:02:51;;;;;;;1.55;0.80;;;;;;;12.82;85.83;100812.09;6199715;28;20046;-71
2022/05/23 01:05:54;;;;;;;0.80;0.80;;;;;;;12.80;86.64;100808.69;6201526;28;20054;-71
2022/05/23 01:08:57;;;;;;;0.98;0.68;;;;;;;12.77;86.28;100807.09;6201133;28;20050;-71
2022/05/23 01:12:00;;;;;;;2.60;0.93;;;;;;;12.77;85.98;100801.84;6201302;28;20047;-71
2022/05/23 01:15:03;;;;;;;0.80;0.80;;;;;;;12.76;86.22;100794.00;6200794;28;20054;-71
2022/05/23 01:18:06;;;;;;;1.58;0.73;;;;;;;12.74;86.07;100791.47;6201204;28;20050;-71
2022/05/23 01:21:16;;;;;;;1.02;0.90;;;;;;;12.68;85.95;100784.78;6201031;28;20053;-70
2022/05/23 01:24:22;;;;;;;;;;;;;;;12.67;85.79;100790.13;6201158;28;20513;-71
2022/05/23 01:27:26;;;;;;;4.20;1.00;;;;;;;12.64;85.04;100785.91;6200911;28;19944;-71
2022/05/23 01:30:28;;;;;;;2.05;0.98;;;;;;;12.64;86.64;100774.53;6200677;28;20046;-71
2022/05/23 01:33:29;;;;;;;0.82;0.65;;;;;;;12.63;86.53;100772.84;6199077;28;20046;-70
2022/05/23 01:36:31;;;;;;;1.20;0.68;;;;;;;12.58;86.83;100767.84;6200186;28;20050;-70
2022/05/23 01:39:32;;;;;;;0.95;0.85;;;;;;;12.58;86.48;100769.59;6200564;28;20061;-70
2022/05/23 01:42:35;;;;;;;1.83;1.00;;;;;;;12.58;86.40;100762.56;6200457;28;20054;-70
2022/05/23 01:45:38;;;;;;;1.60;0.90;;;;;;;12.56;86.88;100753.03;6200504;28;20391;-70
2022/05/23 01:48:40;;;;;;;2.42;1.08;;;;;;;12.53;86.28;100756.69;6200437;28;20065;-71
2022/05/23 01:51:41;;;;;;;0.85;0.82;;;;;;;12.51;86.66;100750.69;6200253;28;20069;-71
2022/05/23 01:54:43;;;;;;;1.50;0.85;;;;;;;12.44;87.53;100744.97;6197429;28;20054;-71
2022/05/23 01:57:45;;;;;;;1.48;0.80;;;;;;;12.45;86.59;100737.91;6177331;28;20054;-70
2022/05/23 02:04:05;;;;;;;1.38;0.93;;;;;;;12.46;86.50;100726.41;6199992;28;20521;-71
2022/05/23 02:07:07;;;;;;;2.88;1.20;;;;;;;12.47;86.67;100721.97;6196695;28;20051;-71
2022/05/23 02:10:09;;;;;;;1.15;0.93;;;;;;;12.46;87.23;100730.84;6171334;28;20059;-71
2022/05/23 02:13:12;;;;;;;3.70;0.90;;;;;;;12.40;87.49;100725.00;6173873;28;20042;-71
2022/05/23 02:16:13;;;;;;;1.13;1.02;;;;;;;12.38;88.04;100721.59;6173673;28;20043;-70
2022/05/23 02:19:15;;;;;;;2.38;1.10;;;;;;;12.40;87.99;100718.88;6174017;28;20047;-70
2022/05/23 02:22:17;;;;;;;2.83;1.33;;;;;;;12.39;87.93;100720.66;6173711;28;20046;-71
2022/05/23 02:25:18;;;;;;;1.10;0.95;;;;;;;12.42;87.75;100709.09;6173614;28;20050;-70
2022/05/23 02:28:21;;;;;;;2.97;1.25;;;;;;;12.45;87.59;100716.81;6171806;28;20062;-70
2022/05/23 02:31:22;;;;;;;2.47;1.20;;;;;;;12.46;88.09;100710.59;6173540;28;20047;-71
2022/05/23 02:34:24;;;;;;;1.20;1.10;;;;;;;12.47;88.06;100706.16;6173515;28;20039;-71
2022/05/23 02:37:25;;;;;;;1.50;1.25;;;;;;;12.43;88.58;100711.63;6173439;28;20043;-71
2022/05/23 02:40:26;;;;;;;3.58;1.50;;;;;;;12.44;89.29;100710.69;6173207;28;20050;-70
2022/05/23 02:43:30;;;;;;;2.00;1.23;;;;;;;12.46;89.74;100712.38;6173466;28;20063;-71
2022/05/23 02:46:31;;;;;;;7.32;1.40;;;;;;;12.49;89.87;100717.44;6170653;28;20046;-71
2022/05/23 02:49:32;;;;;;;1.65;1.00;;;;;;;12.49;89.59;100710.41;6173324;28;20046;-71
2022/05/23 02:52:34;;;;;;;2.08;1.08;;;;;;;12.50;89.97;100708.63;6172967;28;20034;-71
2022/05/23 02:55:35;;;;;;;1.48;1.20;;;;;;;12.55;89.17;100703.91;6173040;28;20042;-70
2022/05/23 02:58:38;;;;;;;3.20;1.80;;;;;;;12.56;88.57;100705.59;6178939;28;20498;-71
2022/05/23 03:04:55;;;;;;;2.25;1.48;;;;;;;12.53;89.19;100701.34;6196355;28;20061;-71
2022/05/23 03:07:56;;;;;;;3.58;1.67;;;;;;;12.57;88.32;100702.00;6197639;28;20050;-71
2022/05/23 03:10:59;;;;;;;9.43;1.70;;;;;;;12.59;88.36;100702.78;6197258;28;20054;-71
2022/05/23 03:14:02;;;;;;;4.93;1.80;;;;;;;12.60;88.81;100700.03;6196551;28;20305;-71
2022/05/23 03:17:05;;;;;;;6.97;1.65;;;;;;;12.61;88.28;100693.81;6196394;28;20050;-71
2022/05/23 03:20:08;;;;;;;2.55;1.52;;;;;;;12.63;88.68;100686.66;6196078;28;20113;-71
2022/05/23 03:29:48;;;;;;;3.03;1.77;;;;;;;12.78;88.26;100684.00;6196034;28;20058;-71
2022/05/23 03:32:50;;;;;;;2.42;1.65;;;;;;;12.80;88.35;100677.66;6196179;28;20046;-71
2022/05/23 03:35:52;;;;;;;1.88;1.52;;;;;;;12.82;88.04;100677.59;6195856;28;20050;-71
2022/05/23 03:38:53;;;;;;;2.28;1.65;;;;;;;12.87;87.99;100678.16;6196244;28;20494;-71
2022/05/23 03:41:54;;;;;;;4.00;1.58;;;;;;;12.87;87.54;100668.44;6195999;28;20054;-71
2022/05/23 03:44:57;;;;;;;3.88;1.65;;;;;;;12.90;87.29;100667.41;6195543;28;20048;-71
2022/05/23 03:47:59;;;;;;;3.25;1.58;;;;;;;12.93;87.29;100672.47;6196040;28;20498;-71
2022/05/23 03:51:01;;;;;;;2.30;1.80;;;;;;;12.95;87.90;100671.44;6195596;28;20054;-71
2022/05/23 03:54:03;;;;;;;2.50;1.60;;;;;;;12.98;87.67;100664.25;6195594;28;20050;-71
2022/05/23 03:57:06;;;;;;;3.70;1.77;;;;;;;13.00;87.67;100657.09;6193670;28;20058;-71
2022/05/23 04:00:12;;;;;;;4.53;1.88;;;;;;;13.00;87.62;100651.81;6195366;28;20465;-70
2022/05/23 04:03:15;;;;;;;1.80;1.40;;;;;;;13.04;88.20;100642.78;6195547;28;20490;-71
2022/05/23 04:06:16;;;;;;;1.92;1.38;;;;;;;13.05;87.23;100626.84;6195546;28;20061;-71
2022/05/23 04:09:18;;;;;;;1.77;1.33;;;;;;;13.06;87.42;100631.16;6195556;28;20399;-71
2022/05/23 04:12:19;;;;;;;3.40;1.83;;;;;;;13.07;87.30;100629.34;6196732;28;20065;-71
2022/05/23 04:15:24;;;;;;;5.88;1.92;;;;;;;13.08;87.38;100624.00;6166994;28;986664;-71
2022/05/23 04:18:25;;;;;;;2.90;1.50;;;;;;;13.10;87.10;100623.91;6201252;28;20417;-71
2022/05/23 04:21:26;;;;;;;1.90;1.40;;;;;;;13.10;86.97;100616.81;6201078;28;20454;-71
2022/05/23 04:24:28;;;;;;;3.13;1.50;;;;;;;13.11;86.97;100607.09;6201031;28;20042;-71
2022/05/23 04:27:29;;;;;;;2.33;1.55;;;;;;;13.13;87.10;100597.31;6199575;28;20050;-71
2022/05/23 04:30:32;;;;;;;1.83;1.27;;;;;;;13.15;86.76;100598.03;6200942;28;20062;-71
2022/05/23 04:36:52;;;;;;;2.10;1.67;;;;;;;13.18;86.84;100582.84;6200923;28;20057;-71
2022/05/23 04:39:53;;;;;;;2.08;1.88;;;;;;;13.18;86.95;100579.38;6200990;28;20050;-71
2022/05/23 04:42:55;;;;;;;4.47;1.35;;;;;;;13.20;87.47;100564.28;6200662;28;20525;-71
2022/05/23 04:45:58;;;;;;;3.65;1.30;;;;;;;13.23;86.53;100560.63;6200746;28;20055;-70
2022/05/23 04:52:22;;;;;;;2.30;1.60;;;;;;;13.30;87.79;100561.88;6200535;28;20050;-71
2022/05/23 04:55:24;;;;;;;3.42;1.35;;;;;;;13.30;87.63;100556.63;6199491;28;20050;-71
2022/05/23 04:58:25;;;;;;;2.47;1.50;;;;;;;13.34;88.04;100544.91;6199999;28;20426;-71
2022/05/23 05:01:28;;;;;;;5.80;1.20;;;;;;;13.38;88.04;100534.03;6200287;28;20054;-71
2022/05/23 05:04:30;;;;;;;2.45;2.25;;;;;;;13.41;87.14;100531.19;6200214;28;20057;-71
2022/05/23 05:07:31;;;;;;;2.78;1.25;;;;;;;13.46;87.29;100525.59;6200368;28;20065;-71
2022/05/23 05:10:33;;;;;;;3.78;1.20;;;;;;;13.50;87.05;100518.31;6199942;28;20486;-71
2022/05/23 05:13:36;;;;;;;2.80;1.30;;;;;;;13.51;87.22;100515.56;6199955;28;20043;-71
2022/05/23 05:16:38;;;;;;;5.30;1.33;;;;;;;13.56;87.24;100513.44;6199891;28;20150;-71
2022/05/23 05:19:40;;;;;;;1.98;1.35;;;;;;;13.62;87.65;100504.25;6200133;28;20628;-70
2022/05/23 05:22:41;;;;;;;4.75;1.45;;;;;;;13.68;86.89;100493.25;6199453;28;20058;-71
2022/05/23 05:25:43;;;;;;;2.03;1.40;;;;;;;13.76;86.92;100488.25;6197896;28;20107;-71
2022/05/23 05:28:44;;;;;;;1.80;1.27;;;;;;;13.80;87.50;100481.81;6200037;28;20058;-71
2022/05/23 05:31:53;;;;;;;1.50;1.05;;;;;;;13.84;86.36;100469.25;6199718;28;20047;-71
2022/05/23 05:34:57;;;;;;;4.00;1.33;;;;;;;13.90;86.95;100469.66;6199557;28;20054;-71
2022/05/23 05:38:05;;;;;;;2.97;1.08;;;;;;;13.97;86.85;100464.78;6199703;28;20138;-71
2022/05/23 05:41:10;;;;;;;2.33;1.13;;;;;;;13.99;87.29;100467.28;6199468;28;20624;-71
2022/05/23 05:44:18;;;;;;;1.20;1.00;;;;;;;14.02;88.05;100475.84;6199308;28;20057;-71
2022/05/23 05:47:22;;;;;;;2.47;1.40;;;;;;;13.99;88.10;100475.22;6199293;28;20050;-71
2022/05/23 05:50:27;;;;;;;2.15;1.15;;;;;;;14.01;88.76;100468.03;6199389;28;20050;-71
2022/05/23 05:53:32;;;;;;;3.40;1.60;;;;;;;14.01;88.03;100463.59;6199027;28;20047;-71
2022/05/23 05:56:33;;;;;;;3.40;1.10;;;;;;;14.06;88.51;100463.25;6199187;28;20058;-71
2022/05/23 05:59:35;;;;;;;2.85;1.40;;;;;;;14.09;87.73;100473.63;6199090;28;20050;-71
2022/05/23 06:02:38;;;;;;;4.35;1.33;;;;;;;14.12;88.30;100470.72;6197537;28;20057;-71
2022/05/23 06:12:14;;;;;;;4.13;1.58;;;;;;;14.27;88.26;100461.72;6172209;28;20046;-71
2022/05/23 06:15:15;;;;;;;2.80;1.17;;;;;;;14.32;87.89;100467.50;6171071;28;20510;-71
2022/05/23 06:18:18;;;;;;;3.22;1.33;;;;;;;14.35;86.62;100469.94;6174145;28;20046;-71
2022/05/23 06:21:19;;;;;;;4.30;1.55;;;;;;;14.39;86.94;100462.59;6173712;28;20059;-71
2022/05/23 06:24:20;;;;;;;1.98;1.05;;;;;;;14.42;86.67;100454.44;6173867;28;20045;-71
2022/05/23 06:27:22;;;;;;;2.33;1.13;;;;;;;14.44;86.55;100455.16;6180459;28;20054;-71
2022/05/23 06:30:23;;;;;;;1.88;1.15;;;;;;;14.40;86.09;100451.91;6199384;28;20058;-71
2022/05/23 06:33:27;;;;;;;2.10;1.15;;;;;;;14.38;85.61;100452.97;6199261;28;20502;-71
2022/05/23 06:36:28;;;;;;;1.75;0.90;;;;;;;14.42;86.74;100444.69;6198512;28;20422;-71
2022/05/23 06:39:29;;;;;;;2.20;1.20;;;;;;;14.49;87.49;100452.19;6199219;28;20454;-71
2022/05/23 06:42:32;;;;;;;1.65;1.17;;;;;;;14.54;86.83;100458.03;6199172;28;20054;-71
2022/05/23 06:45:33;;;;;;;5.45;1.27;;;;;;;14.57;86.92;100453.31;6198887;28;20133;-71
2022/05/23 06:48:37;;;;;;;2.03;0.90;;;;;;;14.62;87.18;100455.63;6199000;28;20430;-71
2022/05/23 06:51:39;;;;;;;1.10;1.00;;;;;;;14.64;86.37;100459.00;6199027;28;20054;-71
2022/05/23 06:54:41;;;;;;;1.42;0.85;;;;;;;14.68;85.61;100461.31;6198531;28;20522;-70
2022/05/23 06:57:43;;;;;;;3.38;1.08;;;;;;;14.74;85.34;100459.16;6197377;28;20058;-71
2022/05/23 07:00:44;;;;;;;4.18;0.90;;;;;;;14.77;85.31;100459.78;6198515;28;20046;-71
2022/05/23 07:03:47;;;;;;;1.10;1.00;;;;;;;14.82;85.11;100454.13;6198646;28;20078;-71
2022/05/23 07:13:28;;;;;;;2.03;1.10;;;;;;;14.93;85.43;100455.00;6182417;28;20302;-71
2022/05/23 07:16:32;;;;;;;1.85;1.08;;;;;;;14.98;85.95;100442.25;6174219;28;20054;-71
2022/05/23 07:19:37;;;;;;;1.50;0.90;;;;;;;15.05;85.34;100433.84;6171846;28;20054;-72
2022/05/23 07:22:38;;;;;;;2.05;1.35;;;;;;;15.08;84.37;100428.31;6155202;28;20058;-73
2022/05/23 07:25:39;;;;;;;2.00;1.15;;;;;;;15.15;84.27;100426.88;6153508;28;20070;-71
2022/05/23 07:28:43;;;;;;;1.55;1.10;;;;;;;15.20;84.30;100416.78;6175388;28;20051;-71
2022/05/23 07:31:44;;;;;;;1.77;0.93;;;;;;;15.26;83.23;100418.09;6185770;28;20055;-72
2022/05/23 07:34:48;;;;;;;2.33;1.10;;;;;;;15.28;84.06;100408.25;6195071;28;20102;-72
2022/05/23 07:37:49;;;;;;;1.90;1.10;;;;;;;15.33;84.04;100406.91;6191292;28;20517;-72
2022/05/23 07:40:51;;;;;;;5.88;1.52;;;;;;;15.38;82.42;100402.09;6187061;28;20055;-71
2022/05/23 07:43:52;;;;;;;4.15;1.17;;;;;;;15.46;83.74;100398.84;6189626;28;20046;-72
2022/05/23 07:46:55;;;;;;;2.95;1.40;;;;;;;15.52;83.26;100387.75;6197951;28;20050;-71
2022/05/23 07:49:57;;;;;;;1.35;1.10;;;;;;;15.63;82.79;100392.22;6187493;28;20050;-72
2022/05/23 08:02:55;;;;;;;0.95;0.85;;;;;;;15.88;80.85;100381.34;6197782;28;20494;-72
2022/05/23 08:05:58;;;;;;;1.73;1.23;;;;;;;15.89;80.52;100375.06;6197599;28;20519;-72
2022/05/23 08:08:59;;;;;;;2.83;1.10;;;;;;;15.93;81.20;100373.84;6197571;28;20050;-71
2022/05/23 08:12:01;;;;;;;2.97;1.20;;;;;;;15.95;80.37;100373.75;6179144;28;20046;-72
2022/05/23 08:15:02;;;;;;;3.97;1.00;;;;;;;15.98;80.25;100371.66;6188915;28;20513;-71
2022/05/23 08:18:04;;;;;;;0.90;0.88;;;;;;;16.01;78.85;100367.09;6197677;28;20057;-71
2022/05/23 08:21:06;;;;;;;3.35;1.33;;;;;;;16.04;79.19;100366.84;6197414;28;20395;-71
2022/05/23 08:24:08;;;;;;;2.08;1.08;;;;;;;16.13;79.01;100366.09;6197161;28;20046;-71
2022/05/23 08:27:09;;;;;;;2.65;2.00;;;;;;;16.15;77.13;100370.28;6179026;28;20046;-72
2022/05/23 08:30:12;;;;;;;3.88;1.30;;;;;;;16.12;78.70;100367.88;6183684;28;20054;-72
2022/05/23 08:33:14;;;;;;;2.95;1.30;;;;;;;16.14;78.45;100368.59;6197532;28;20129;-73
2022/05/23 08:36:16;;;;;;;1.67;1.05;;;;;;;16.21;80.08;100364.50;6197109;28;20600;-74
2022/05/23 08:39:17;;;;;;;4.30;1.40;;;;;;;16.26;80.89;100360.59;6197412;28;20054;-71
2022/05/23 08:42:30;;;;;;;1.15;1.00;;;;;;;16.27;79.13;100365.78;6196809;28;20054;-71
2022/05/23 08:45:37;;;;;;;2.00;1.27;;;;;;;16.30;79.96;100360.22;6197342;28;20051;-77
2022/05/23 08:48:43;;;;;;;3.78;1.00;;;;;;;16.33;79.20;100362.59;6197281;28;20193;-75
2022/05/23 08:51:57;;;;;;;5.07;0.80;;;;;;;16.34;79.49;100360.78;6197131;28;20403;-71
2022/05/23 08:55:02;;;;;;;4.50;1.20;;;;;;;16.37;80.61;100361.38;6195374;28;20050;-72
2022/05/23 08:58:09;;;;;;;2.50;1.52;;;;;;;16.40;79.35;100352.34;6173447;28;20061;-72
2022/05/23 09:01:13;;;;;;;2.05;1.15;;;;;;;16.45;78.25;100360.75;6176837;28;20062;-71
2022/05/23 09:04:23;;;;;;;1.70;1.10;;;;;;;16.47;76.75;100356.97;6176431;28;20062;-69
2022/05/23 09:07:32;;;;;;;1.73;1.20;;;;;;;16.48;78.66;100348.06;6177390;28;20058;-72
2022/05/23 09:10:41;;;;;;;2.92;1.13;;;;;;;16.56;78.57;100343.91;6177427;28;20059;-72
2022/05/23 09:13:44;;;;;;;;;;;;;;;16.68;78.39;100338.41;6177183;28;20046;-72
2022/05/23 09:16:48;;;;;;;5.05;1.77;;;;;;;16.77;77.12;100341.28;6177203;28;19929;-72
2022/05/23 09:20:00;;;;;;;3.85;1.67;;;;;;;16.84;77.35;100337.13;6176802;28;20109;-72
2022/05/23 09:23:07;;;;;;;5.60;1.73;;;;;;;16.91;77.07;100332.97;6177318;28;20564;-72
2022/05/23 09:26:17;;;;;;;5.43;1.60;;;;;;;16.98;77.95;100323.50;6177727;28;20518;-72
2022/05/23 09:29:19;;;;;;;2.00;1.20;;;;;;;17.07;76.74;100328.00;6177043;28;20055;-72
2022/05/23 09:32:24;;;;;;;3.00;1.40;;;;;;;17.15;77.24;100322.88;6176716;28;20438;-76
2022/05/23 09:35:28;;;;;;;1.77;1.20;;;;;;;17.27;75.73;100318.31;6176586;28;20505;-71
2022/05/23 09:38:31;;;;;;;2.75;1.25;;;;;;;17.32;75.45;100309.94;6176584;28;20058;-70
2022/05/23 09:48:15;;;;;;;2.42;1.20;;;;;;;17.62;76.62;100280.63;6176475;28;20054;-70
2022/05/23 09:51:17;;;;;;;4.20;1.40;;;;;;;17.74;73.02;100284.00;6176199;28;20073;-70
2022/05/23 09:54:26;;;;;;;3.28;1.23;;;;;;;17.84;73.35;100276.03;6176023;28;20050;-70
2022/05/23 09:57:32;;;;;;;4.05;1.05;;;;;;;17.90;71.96;100263.03;6200136;28;20054;-70
2022/05/23 10:00:36;;;;;;;2.65;1.20;;;;;;;18.03;72.56;100248.59;6200298;28;20046;-70
2022/05/23 10:03:49;;;;;;;3.88;1.10;;;;;;;18.26;73.18;100247.31;6200050;28;20060;-70
2022/05/23 10:06:51;;;;;;;3.90;1.77;;;;;;;18.50;71.55;100250.31;6200381;28;20663;-70
2022/05/23 10:09:58;;;;;;;2.22;1.35;;;;;;;18.72;69.08;100235.84;6198656;28;20046;-70
2022/05/23 10:13:17;;;;;;;3.38;1.10;;;;;;;18.80;68.94;100236.91;6198577;28;20050;-70
2022/05/23 10:16:26;;;;;;;4.82;0.95;;;;;;;18.93;70.00;100235.59;6199684;28;20054;-72
2022/05/23 10:19:31;;;;;;;;;;;;;;;19.06;70.20;100227.25;6200410;28;20192;-70
2022/05/23 10:22:33;;;;;;;1.38;1.02;;;;;;;19.24;69.21;100221.94;6199552;28;20064;-70
2022/05/23 10:25:42;;;;;;;1.52;1.38;;;;;;;19.42;68.32;100213.97;6198011;28;20069;-69
2022/05/23 10:28:47;;;;;;;1.30;1.02;;;;;;;19.63;67.03;100206.53;6199564;28;20050;-70
2022/05/23 10:31:54;;;;;;;3.60;1.20;;;;;;;19.84;65.44;100205.38;6199552;28;20058;-70
2022/05/23 10:35:05;;;;;;;3.03;1.38;;;;;;;20.07;64.13;100193.19;6199181;28;20069;-70
2022/05/23 10:45:21;;;;;;;1.88;1.15;;;;;;;20.41;63.38;100171.06;6199009;28;20050;-70
2022/05/23 10:48:37;;;;;;;2.40;1.05;;;;;;;20.56;62.97;100164.13;6199399;28;20050;-69
2022/05/23 10:51:44;;;;;;;1.50;1.10;;;;;;;20.86;63.62;100161.91;6198910;28;20061;-70
2022/05/23 10:54:54;;;;;;;3.50;1.13;;;;;;;20.99;60.14;100159.63;6197196;28;20042;-70
2022/05/23 10:58:03;;;;;;;;;;;;;;;21.08;59.12;100155.13;6199435;28;20042;-70
2022/05/23 11:01:19;;;;;;;2.50;1.40;;;;;;;21.12;61.02;100159.97;6198934;28;19928;-70
2022/05/23 11:04:43;;;;;;;2.50;1.77;;;;;;;21.15;60.13;100153.47;6198616;28;20523;-70
2022/05/23 11:07:56;;;;;;;3.75;1.25;;;;;;;21.18;60.48;100153.97;6198844;28;20054;-70
2022/05/23 11:11:05;;;;;;;2.63;1.20;;;;;;;21.40;58.20;100141.84;6198787;28;20054;-70
2022/05/23 11:14:14;;;;;;;3.95;1.35;;;;;;;21.77;57.13;100130.59;6198187;28;20498;-70
2022/05/23 11:17:24;;;;;;;;;;;;;;;22.17;57.00;100122.69;6199194;28;20050;-69
2022/05/23 11:20:29;;;;;;;1.80;1.20;;;;;;;22.45;55.04;100123.09;6198106;28;19929;-72
2022/05/23 11:23:36;;;;;;;2.67;1.50;;;;;;;22.57;51.92;100124.34;6198146;28;20061;-70
2022/05/23 11:26:43;;;;;;;3.00;1.20;;;;;;;22.92;54.71;100116.84;6195838;28;20046;-72
2022/05/23 11:36:45;;;;;;;1.33;1.02;;;;;;;23.96;50.30;100108.09;6173839;28;20082;-70
2022/05/23 11:39:49;;;;;;;5.38;1.45;;;;;;;24.26;48.58;100100.06;6173795;28;20097;-69
2022/05/23 11:42:55;;;;;;;2.83;1.20;;;;;;;24.57;49.92;100090.94;6173876;28;20050;-70
2022/05/23 11:45:59;;;;;;;3.53;1.83;;;;;;;24.75;47.36;100085.97;6173558;28;20054;-69
2022/05/23 11:49:03;;;;;;;5.90;1.50;;;;;;;24.84;47.84;100084.00;6173963;28;20507;-69
2022/05/23 11:52:18;;;;;;;1.85;0.90;;;;;;;25.17;47.81;100074.44;6173494;28;20051;-70
2022/05/23 11:55:53;;;;;;;2.63;1.23;;;;;;;25.42;47.95;100068.66;6173622;28;20055;-69
2022/05/23 11:58:56;;;;;;;2.50;1.27;;;;;;;25.82;47.85;100053.66;6174523;28;20557;-70
2022/05/23 12:02:24;;;;;;;1.13;1.00;;;;;;;25.99;44.31;100052.28;6173677;28;20051;-70
2022/05/23 12:05:31;;;;;;;9.63;1.50;;;;;;;26.13;43.47;100034.34;6173555;28;20050;-70
2022/05/23 12:08:38;;;;;;;1.77;1.02;;;;;;;26.35;43.25;100032.34;6173133;28;20073;-70
2022/05/23 12:11:42;;;;;;;1.83;1.08;;;;;;;26.59;44.33;100035.56;6173311;28;20059;-70
2022/05/23 12:14:56;;;;;;;1.25;1.00;;;;;;;26.80;42.18;100030.03;6172591;28;20046;-70
2022/05/23 12:18:01;;;;;;;1.00;0.88;;;;;;;26.96;42.29;100021.50;6173576;28;20652;-70
2022/05/23 12:21:06;;;;;;;1.92;1.20;;;;;;;27.14;40.64;100004.75;6173261;28;20055;-70
2022/05/23 12:24:13;;;;;;;2.67;1.63;;;;;;;27.12;41.42;100006.00;6173754;28;20054;-71
2022/05/23 12:27:28;;;;;;;4.15;1.30;;;;;;;27.26;41.42;100000.38;6174347;28;20058;-70
2022/05/23 12:30:35;;;;;;;2.47;1.73;;;;;;;27.33;41.97;99992.28;6173480;28;20047;-70
2022/05/23 12:33:44;;;;;;;2.20;0.80;;;;;;;27.46;41.68;99983.31;6175606;28;20051;-71
2022/05/23 12:36:50;;;;;;;2.15;1.00;;;;;;;27.58;41.46;99975.44;6178110;28;20047;-71
2022/05/23 12:40:03;;;;;;;0.95;0.80;;;;;;;27.70;41.10;99965.59;6177707;28;20074;-71
2022/05/23 12:43:16;;;;;;;1.75;1.38;;;;;;;27.84;39.31;99958.31;6178212;28;20063;-71
2022/05/23 12:46:29;;;;;;;2.35;0.98;;;;;;;27.96;39.85;99954.75;6177774;28;20414;-71
2022/05/23 12:49:45;;;;;;;0.70;0.70;;;;;;;28.00;39.92;99947.03;6177931;28;20051;-70
2022/05/23 12:53:07;;;;;;;2.38;0.90;;;;;;;27.98;39.00;99941.00;6177552;28;20419;-71
2022/05/23 12:56:30;;;;;;;1.95;1.00;;;;;;;27.89;38.55;99943.16;6177681;28;20047;-70
2022/05/23 12:59:43;;;;;;;5.85;1.15;;;;;;;27.91;39.77;99937.53;6153733;29;20051;-72
2022/05/23 13:02:54;;;;;;;1.00;0.90;;;;;;;28.11;39.60;99937.41;6153580;29;20051;-71
2022/05/23 13:06:05;;;;;;;2.40;1.20;;;;;;;28.17;38.88;99928.47;6153467;29;20051;-70
2022/05/23 13:09:10;;;;;;;1.33;0.90;;;;;;;28.26;38.61;99919.88;6153446;29;20423;-71
2022/05/23 13:12:17;;;;;;;2.50;0.95;;;;;;;28.47;39.52;99905.19;6153351;29;20510;-71
2022/05/23 13:15:29;;;;;;;1.58;0.93;;;;;;;28.51;39.27;99911.00;6152834;29;20051;-71
2022/05/23 13:22:09;;;;;;;1.75;1.20;;;;;;;28.71;39.17;99891.94;6152745;29;20055;-71
2022/05/23 13:25:10;;;;;;;1.50;0.98;;;;;;;28.63;39.30;99881.38;6152886;29;20443;-71
2022/05/23 13:28:15;;;;;;;1.00;0.90;;;;;;;28.52;38.80;99886.47;6183403;28;20042;-70
2022/05/23 13:31:28;;;;;;;1.02;0.77;;;;;;;28.69;39.60;99880.50;6201016;28;20498;-71
2022/05/23 13:34:34;;;;;;;1.92;0.93;;;;;;;28.69;39.74;99878.63;6200691;28;20055;-71
2022/05/23 13:37:38;;;;;;;1.98;1.02;;;;;;;28.51;39.00;99875.84;6200745;28;20456;-71
2022/05/23 13:40:45;;;;;;;0.73;0.70;;;;;;;28.63;39.97;99868.69;6200616;28;20054;-71
2022/05/23 13:43:47;;;;;;;1.30;0.77;;;;;;;28.39;38.85;99873.06;6200377;28;20054;-71
2022/05/23 13:46:51;;;;;;;1.67;1.00;;;;;;;28.17;39.01;99858.22;6200665;28;20057;-71
2022/05/23 13:49:57;;;;;;;0.80;0.80;;;;;;;28.05;40.11;99852.66;6200577;28;20043;-71
2022/05/23 13:53:06;;;;;;;1.52;0.98;;;;;;;28.21;39.75;99849.47;6200644;28;20403;-71
2022/05/23 13:56:07;;;;;;;1.85;0.98;;;;;;;28.28;40.08;99835.88;6200348;28;20191;-71
2022/05/23 13:59:14;;;;;;;1.88;1.05;;;;;;;28.39;40.04;99827.09;6198809;28;20049;-71
2022/05/23 14:02:20;;;;;;;2.85;1.20;;;;;;;28.36;39.59;99819.44;6200287;28;20058;-71
2022/05/23 14:05:25;;;;;;;1.33;0.82;;;;;;;28.25;40.82;99820.94;6200112;28;20054;-71
2022/05/23 14:08:36;;;;;;;1.27;0.90;;;;;;;28.02;40.11;99818.84;6200244;28;20089;-71
2022/05/23 14:11:40;;;;;;;1.27;0.88;;;;;;;27.95;39.85;99814.50;6199930;28;20432;-71
2022/05/23 14:14:45;;;;;;;1.67;0.90;;;;;;;28.03;40.46;99806.97;6199775;28;20054;-71
2022/05/23 14:17:49;;;;;;;0.80;0.80;;;;;;;28.22;40.78;99802.47;6199863;28;20046;-71
2022/05/23 14:20:51;;;;;;;1.83;0.90;;;;;;;28.19;39.70;99797.50;6199884;28;20049;-71
2022/05/23 14:23:54;;;;;;;0.80;0.80;;;;;;;28.38;40.74;99786.75;6199488;28;20050;-71
2022/05/23 14:27:20;;;;;;;1.33;1.00;;;;;;;28.13;40.63;99781.34;6198330;28;20043;-70
2022/05/23 14:30:35;;;;;;;0.63;0.60;;;;;;;28.29;40.45;99778.06;6199549;28;20065;-71
2022/05/23 14:33:41;;;;;;;0.70;0.70;;;;;;;28.30;39.63;99775.19;6199713;28;20054;-71
2022/05/23 14:36:52;;;;;;;1.25;0.90;;;;;;;27.81;40.42;99771.38;6199365;28;20065;-72
2022/05/23 14:39:54;;;;;;;3.40;0.90;;;;;;;27.49;41.99;99761.59;6199421;28;20053;-72
2022/05/23 14:42:56;;;;;;;3.85;1.35;;;;;;;27.28;41.47;99747.38;6199289;28;20057;-71
2022/05/23 14:45:59;;;;;;;1.38;0.70;;;;;;;27.28;41.87;99755.47;6199106;28;20529;-71
2022/05/23 14:49:05;;;;;;;1.67;0.80;;;;;;;26.96;40.98;99749.13;6199285;28;20082;-71
2022/05/23 14:52:18;;;;;;;2.08;1.20;;;;;;;27.09;40.68;99729.41;6199064;28;20050;-71
2022/05/23 14:55:23;;;;;;;0.65;0.60;;;;;;;27.20;41.17;99726.03;6198141;28;20065;-71
2022/05/23 15:01:47;;;;;;;1.52;1.05;;;;;;;27.06;41.27;99727.09;6174720;28;20054;-71
2022/05/23 15:04:50;;;;;;;1.17;0.85;;;;;;;27.02;41.74;99715.91;6174627;28;20047;-71
2022/05/23 15:07:59;;;;;;;1.15;0.70;;;;;;;27.04;41.93;99715.72;6174576;28;20050;-71
2022/05/23 15:11:02;;;;;;;2.25;1.65;;;;;;;27.06;42.20;99702.81;6174787;28;20051;-71
2022/05/23 15:14:03;;;;;;;1.80;0.90;;;;;;;26.75;42.29;99699.03;6174129;28;20062;-71
2022/05/23 15:17:09;;;;;;;3.83;0.73;;;;;;;26.66;42.05;99694.91;6174532;28;20049;-71
2022/05/23 15:20:10;;;;;;;1.85;1.00;;;;;;;26.54;43.49;99683.97;6174185;28;20050;-72
2022/05/23 15:23:12;;;;;;;3.63;0.88;;;;;;;26.33;42.87;99683.34;6174611;28;20058;-70
2022/05/23 15:26:19;;;;;;;1.10;1.00;;;;;;;26.08;43.96;99661.66;6174142;28;20051;-72
2022/05/23 15:29:21;;;;;;;4.50;1.67;;;;;;;25.91;45.02;99656.69;6175376;28;20062;-71
2022/05/23 15:32:22;;;;;;;2.15;0.73;;;;;;;25.71;45.54;99653.97;6174051;28;20057;-71
2022/05/23 15:35:25;;;;;;;3.50;1.58;;;;;;;25.67;45.79;99649.22;6173717;28;20058;-71
2022/05/23 15:38:26;;;;;;;3.42;1.48;;;;;;;25.56;46.31;99653.34;6174136;28;20517;-71
2022/05/23 15:41:29;;;;;;;1.98;1.05;;;;;;;25.50;47.09;99646.09;6173741;28;20061;-71